createdAt,value
2022-11-01T00:02:00.802Z,11.57
2022-11-01T00:04:28.893Z,10.91
2022-11-01T00:06:56.713Z,11.37
2022-11-01T00:09:25.911Z,11.21
2022-11-01T00:11:54.046Z,11.73
2022-11-01T00:14:22.402Z,12.06
2022-11-01T00:16:50.965Z,12.12
2022-11-01T00:19:20.679Z,12.22
2022-11-01T00:21:48.589Z,12.30
2022-11-01T00:24:16.791Z,12.46
2022-11-01T00:26:46.141Z,12.70
2022-11-01T00:29:14.455Z,12.51
2022-11-01T00:31:42.346Z,12.59
2022-11-01T00:34:10.247Z,12.50
2022-11-01T00:36:38.178Z,12.63
2022-11-01T00:39:06.760Z,12.80
2022-11-01T00:41:37.379Z,12.76
2022-11-01T00:44:06.921Z,12.60
2022-11-01T00:46:35.262Z,12.48
2022-11-01T00:49:03.432Z,12.16
2022-11-01T00:51:31.263Z,12.25
2022-11-01T00:53:59.061Z,12.23
2022-11-01T00:56:26.880Z,12.42
2022-11-01T00:58:54.939Z,12.44
2022-11-01T01:01:24.369Z,12.48
2022-11-01T01:03:52.409Z,12.43
2022-11-01T01:06:20.456Z,12.26
2022-11-01T01:08:48.301Z,12.33
2022-11-01T01:11:16.968Z,12.45
2022-11-01T01:13:44.845Z,12.50
2022-11-01T01:16:14.097Z,12.26
2022-11-01T01:18:43.416Z,12.42
2022-11-01T01:21:11.763Z,12.38
2022-11-01T01:23:39.579Z,12.11
2022-11-01T01:26:08.780Z,11.92
2022-11-01T01:28:41.842Z,11.78
2022-11-01T01:31:13.861Z,11.94
2022-11-01T01:33:43.224Z,12.22
2022-11-01T01:36:11.246Z,12.38
2022-11-01T01:38:39.549Z,12.40
2022-11-01T01:41:25.113Z,12.30
2022-11-01T01:43:53.028Z,12.30
2022-11-01T01:46:20.932Z,12.22
2022-11-01T01:48:56.351Z,12.32
2022-11-01T01:51:27.631Z,12.31
2022-11-01T01:53:58.174Z,12.48
2022-11-01T01:56:32.077Z,12.36
2022-11-01T01:59:04.518Z,12.21
2022-11-01T02:01:33.691Z,12.22
2022-11-01T02:04:03.578Z,12.41
2022-11-01T02:06:34.481Z,12.40
2022-11-01T02:09:05.108Z,12.41
2022-11-01T02:11:33.035Z,12.30
2022-11-01T02:14:01.463Z,12.37
2022-11-01T02:16:51.454Z,12.25
2022-11-01T02:19:55.411Z,12.21
2022-11-01T02:22:36.281Z,12.07
2022-11-01T02:25:22.579Z,12.10
2022-11-01T02:28:09.930Z,12.11
2022-11-01T02:30:46.088Z,12.21
2022-11-01T02:33:23.841Z,12.04
2022-11-01T02:36:01.202Z,11.93
2022-11-01T02:38:35.385Z,12.05
2022-11-01T02:41:09.837Z,12.28
2022-11-01T02:43:46.148Z,12.30
2022-11-01T02:46:32.892Z,12.35
2022-11-01T02:49:02.456Z,12.18
2022-11-01T02:51:31.179Z,12.04
2022-11-01T02:54:02.479Z,11.95
2022-11-01T02:56:30.825Z,12.02
2022-11-01T02:58:59.330Z,12.09
2022-11-01T03:01:30.959Z,12.05
2022-11-01T03:04:00.008Z,12.07
2022-11-01T03:06:35.779Z,12.35
2022-11-01T03:09:08.024Z,12.68
2022-11-01T03:11:44.592Z,12.46
2022-11-01T03:14:22.213Z,12.43
2022-11-01T03:16:58.344Z,12.24
2022-11-01T03:19:36.012Z,12.10
2022-11-01T03:22:11.555Z,12.11
2022-11-01T03:24:46.377Z,11.93
2022-11-01T03:27:18.941Z,12.00
2022-11-01T03:29:57.194Z,12.37
2022-11-01T03:32:31.188Z,11.93
2022-11-01T03:35:02.316Z,12.07
2022-11-01T03:37:33.830Z,11.94
2022-11-01T03:40:05.591Z,11.86
2022-11-01T03:42:34.692Z,11.93
2022-11-01T03:45:08.351Z,12.14
2022-11-01T03:47:36.575Z,12.20
2022-11-01T03:50:16.128Z,12.32
2022-11-01T03:52:45.695Z,12.44
2022-11-01T03:55:20.022Z,12.40
2022-11-01T03:57:48.552Z,12.60
2022-11-01T04:00:18.416Z,12.38
2022-11-01T04:02:46.249Z,12.28
2022-11-01T04:05:14.265Z,12.23
2022-11-01T04:07:43.117Z,12.28
2022-11-01T04:10:13.621Z,12.51
2022-11-01T04:12:41.853Z,12.38
2022-11-01T04:15:37.439Z,12.36
2022-11-01T04:18:25.191Z,12.51
2022-11-01T04:20:54.022Z,12.52
2022-11-01T04:23:22.062Z,12.50
2022-11-01T04:25:51.285Z,12.53
2022-11-01T04:28:19.451Z,12.64
2022-11-01T04:30:47.484Z,12.66
2022-11-01T04:33:15.310Z,12.62
2022-11-01T04:35:43.153Z,12.54
2022-11-01T04:38:11.966Z,12.60
2022-11-01T04:40:40.933Z,12.52
2022-11-01T04:43:10.296Z,12.40
2022-11-01T04:45:38.262Z,12.49
2022-11-01T04:48:08.087Z,12.39
2022-11-01T04:50:36.913Z,12.21
2022-11-01T04:53:05.278Z,12.20
2022-11-01T04:55:33.511Z,12.19
2022-11-01T04:58:01.393Z,12.18
2022-11-01T05:00:32.114Z,12.30
2022-11-01T05:03:04.216Z,12.53
2022-11-01T05:05:33.001Z,12.56
2022-11-01T05:10:36.583Z,12.28
2022-11-01T05:13:05.619Z,12.66
2022-11-01T05:15:39.975Z,12.67
2022-11-01T05:18:11.733Z,12.47
2022-11-01T05:20:39.677Z,12.32
2022-11-01T05:23:07.837Z,12.36
2022-11-01T05:25:38.084Z,12.37
2022-11-01T05:28:08.465Z,12.48
2022-11-01T05:30:38.621Z,12.29
2022-11-01T05:33:07.823Z,12.39
2022-11-01T05:35:37.116Z,12.27
2022-11-01T05:38:06.047Z,12.39
2022-11-01T05:40:34.223Z,12.47
2022-11-01T05:43:02.334Z,12.62
2022-11-01T05:45:30.421Z,12.56
2022-11-01T05:48:04.425Z,12.35
2022-11-01T05:50:32.504Z,12.27
2022-11-01T05:53:08.490Z,12.18
2022-11-01T05:55:36.935Z,12.21
2022-11-01T05:58:04.892Z,12.07
2022-11-01T06:00:33.276Z,12.08
2022-11-01T06:03:02.338Z,12.13
2022-11-01T06:05:32.437Z,12.51
2022-11-01T06:08:02.605Z,12.30
2022-11-01T06:10:30.886Z,12.34
2022-11-01T06:12:59.283Z,12.33
2022-11-01T06:15:27.481Z,12.36
2022-11-01T06:17:59.306Z,12.31
2022-11-01T06:20:27.852Z,12.45
2022-11-01T06:22:57.243Z,12.47
2022-11-01T06:25:25.685Z,12.69
2022-11-01T06:27:54.411Z,12.78
2022-11-01T06:30:22.700Z,12.97
2022-11-01T06:32:50.571Z,12.93
2022-11-01T06:35:18.646Z,12.89
2022-11-01T06:37:47.295Z,12.85
2022-11-01T06:40:16.688Z,13.12
2022-11-01T06:42:46.451Z,13.25
2022-11-01T06:45:14.845Z,13.41
2022-11-01T06:47:53.578Z,13.54
2022-11-01T06:50:21.523Z,13.76
2022-11-01T06:52:49.476Z,13.66
2022-11-01T06:55:18.985Z,13.59
2022-11-01T06:57:56.036Z,13.73
2022-11-01T07:00:24.742Z,13.68
2022-11-01T07:03:00.646Z,13.86
2022-11-01T07:05:31.654Z,13.92
2022-11-01T07:08:03.265Z,13.98
2022-11-01T07:10:33.032Z,13.99
2022-11-01T07:13:01.229Z,13.96
2022-11-01T07:15:30.012Z,14.11
2022-11-01T07:17:58.235Z,13.92
2022-11-01T07:20:27.441Z,13.93
2022-11-01T07:23:00.688Z,13.78
2022-11-01T07:25:30.212Z,13.70
2022-11-01T07:27:59.874Z,13.88
2022-11-01T07:30:28.826Z,14.13
2022-11-01T07:32:57.378Z,14.36
2022-11-01T07:35:26.248Z,14.63
2022-11-01T07:37:54.693Z,14.91
2022-11-01T07:40:27.603Z,14.91
2022-11-01T07:42:58.292Z,14.92
2022-11-01T07:45:30.160Z,14.74
2022-11-01T07:48:02.347Z,14.93
2022-11-01T07:50:31.419Z,15.23
2022-11-01T07:53:02.800Z,15.41
2022-11-01T07:55:30.878Z,15.60
2022-11-01T07:57:59.307Z,15.62
2022-11-01T08:00:29.748Z,15.86
2022-11-01T08:03:02.543Z,16.04
2022-11-01T08:05:31.638Z,16.07
2022-11-01T08:08:00.276Z,15.86
2022-11-01T08:10:29.844Z,15.90
2022-11-01T08:13:05.368Z,16.08
2022-11-01T08:15:35.298Z,15.91
2022-11-01T08:18:03.665Z,15.93
2022-11-01T08:20:31.893Z,15.86
2022-11-01T08:22:59.966Z,15.78
2022-11-01T08:25:28.196Z,15.80
2022-11-01T08:27:56.118Z,15.70
2022-11-01T08:30:24.171Z,15.59
2022-11-01T08:32:59.772Z,15.49
2022-11-01T08:35:28.312Z,15.43
2022-11-01T08:37:58.999Z,15.48
2022-11-01T08:40:28.625Z,15.66
2022-11-01T08:42:56.811Z,15.62
2022-11-01T08:45:25.354Z,15.58
2022-11-01T08:47:59.762Z,15.56
2022-11-01T08:50:28.717Z,15.60
2022-11-01T08:52:56.838Z,15.75
2022-11-01T08:55:37.405Z,15.86
2022-11-01T08:58:06.630Z,16.18
2022-11-01T09:00:35.156Z,16.30
2022-11-01T09:03:02.987Z,16.33
2022-11-01T09:05:31.675Z,16.43
2022-11-01T09:08:00.720Z,16.49
2022-11-01T09:10:30.623Z,16.37
2022-11-01T09:13:00.731Z,16.41
2022-11-01T09:15:29.142Z,16.43
2022-11-01T09:17:57.210Z,16.46
2022-11-01T09:20:26.533Z,16.45
2022-11-01T09:22:54.437Z,16.24
2022-11-01T09:25:22.325Z,16.31
2022-11-01T09:27:50.332Z,16.40
2022-11-01T09:30:20.032Z,16.47
2022-11-01T09:32:47.992Z,16.38
2022-11-01T09:35:15.988Z,16.35
2022-11-01T09:37:44.166Z,16.44
2022-11-01T09:40:14.621Z,16.54
2022-11-01T09:42:45.322Z,16.51
2022-11-01T09:45:18.713Z,16.40
2022-11-01T09:47:51.324Z,16.52
2022-11-01T09:50:23.611Z,16.48
2022-11-01T09:52:51.923Z,16.56
2022-11-01T09:55:27.205Z,16.74
2022-11-01T09:58:03.145Z,16.66
2022-11-01T10:00:36.396Z,16.69
2022-11-01T10:03:22.840Z,16.92
2022-11-01T10:06:04.474Z,16.97
2022-11-01T10:08:49.372Z,17.05
2022-11-01T10:11:35.424Z,16.95
2022-11-01T10:14:12.155Z,17.04
2022-11-01T10:16:42.601Z,17.11
2022-11-01T10:19:15.359Z,17.17
2022-11-01T10:21:49.079Z,17.19
2022-11-01T10:24:25.864Z,17.18
2022-11-01T10:26:59.574Z,17.27
2022-11-01T10:29:34.549Z,17.24
2022-11-01T10:32:04.940Z,17.30
2022-11-01T10:34:39.608Z,17.55
2022-11-01T10:37:16.412Z,17.64
2022-11-01T10:39:56.425Z,17.55
2022-11-01T10:42:29.385Z,17.60
2022-11-01T10:45:01.483Z,17.69
2022-11-01T10:47:32.311Z,17.72
2022-11-01T10:50:07.550Z,17.68
2022-11-01T10:52:46.219Z,18.09
2022-11-01T10:55:19.549Z,18.09
2022-11-01T10:57:53.117Z,18.14
2022-11-01T11:00:23.325Z,17.80
2022-11-01T11:02:53.976Z,17.63
2022-11-01T11:05:25.202Z,17.51
2022-11-01T11:07:53.222Z,17.62
2022-11-01T11:10:24.843Z,17.68
2022-11-01T11:12:57.301Z,17.77
2022-11-01T11:15:36.393Z,17.38
2022-11-01T11:18:09.110Z,17.35
2022-11-01T11:20:38.432Z,17.40
2022-11-01T11:23:12.763Z,17.44
2022-11-01T11:25:43.001Z,17.33
2022-11-01T11:28:24.467Z,17.32
2022-11-01T11:30:52.540Z,17.24
2022-11-01T11:33:21.167Z,17.37
2022-11-01T11:35:59.993Z,17.33
2022-11-01T11:38:52.024Z,17.33
2022-11-01T11:41:31.622Z,17.54
2022-11-01T11:44:00.822Z,17.42
2022-11-01T11:46:29.417Z,17.55
2022-11-01T11:49:01.092Z,17.64
2022-11-01T11:51:31.787Z,17.56
2022-11-01T11:54:22.745Z,17.58
2022-11-01T11:56:53.509Z,17.56
2022-11-01T11:59:29.447Z,17.71
2022-11-01T12:02:00.288Z,17.62
2022-11-01T12:04:35.498Z,17.61
2022-11-01T12:07:06.826Z,17.47
2022-11-01T12:09:39.765Z,17.52
2022-11-01T12:12:09.168Z,17.35
2022-11-01T12:14:39.677Z,17.42
2022-11-01T12:17:31.369Z,17.22
2022-11-01T12:20:13.985Z,16.95
2022-11-01T12:22:49.571Z,16.92
2022-11-01T12:25:22.574Z,17.08
2022-11-01T12:27:58.982Z,17.03
2022-11-01T12:30:31.067Z,17.04
2022-11-01T12:33:00.323Z,17.11
2022-11-01T12:35:32.561Z,16.94
2022-11-01T12:38:29.150Z,16.89
2022-11-01T12:41:01.628Z,16.94
2022-11-01T12:43:36.753Z,16.86
2022-11-01T12:46:13.834Z,16.92
2022-11-01T12:48:43.980Z,16.63
2022-11-01T12:51:17.656Z,16.93
2022-11-01T12:53:54.157Z,17.00
2022-11-01T12:56:22.133Z,17.04
2022-11-01T12:58:53.911Z,17.05
2022-11-01T13:01:32.094Z,17.07
2022-11-01T13:04:13.973Z,17.07
2022-11-01T13:07:00.218Z,17.19
2022-11-01T13:09:39.221Z,17.08
2022-11-01T13:12:13.339Z,16.98
2022-11-01T13:14:53.345Z,16.87
2022-11-01T13:17:26.749Z,16.84
2022-11-01T13:20:03.835Z,16.81
2022-11-01T13:22:39.807Z,16.84
2022-11-01T13:25:18.563Z,16.88
2022-11-01T13:27:53.176Z,17.00
2022-11-01T13:30:21.748Z,17.07
2022-11-01T13:32:55.692Z,17.21
2022-11-01T13:35:55.569Z,17.16
2022-11-01T13:38:33.214Z,17.21
2022-11-01T13:41:10.975Z,17.16
2022-11-01T13:43:42.971Z,17.38
2022-11-01T13:46:32.781Z,17.35
2022-11-01T13:49:26.730Z,17.44
2022-11-01T13:52:01.339Z,17.39
2022-11-01T13:54:33.691Z,17.46
2022-11-01T13:57:12.362Z,17.36
2022-11-01T13:59:45.849Z,17.25
2022-11-01T14:02:57.080Z,17.16
2022-11-01T14:05:38.499Z,17.07
2022-11-01T14:08:37.891Z,16.98
2022-11-01T14:11:06.444Z,16.87
2022-11-01T14:13:38.435Z,16.87
2022-11-01T14:16:28.075Z,16.73
2022-11-01T14:19:20.469Z,16.70
2022-11-01T14:21:53.518Z,16.72
2022-11-01T14:24:25.307Z,16.76
2022-11-01T14:27:19.138Z,16.65
2022-11-01T14:29:51.961Z,16.55
2022-11-01T14:32:22.474Z,16.52
2022-11-01T14:35:04.111Z,16.42
2022-11-01T14:37:39.414Z,16.34
2022-11-01T14:40:37.909Z,16.26
2022-11-01T14:43:17.992Z,16.22
2022-11-01T14:45:50.165Z,16.19
2022-11-01T14:48:24.748Z,16.19
2022-11-01T14:51:02.541Z,16.13
2022-11-01T14:53:34.018Z,16.06
2022-11-01T14:56:15.410Z,16.07
2022-11-01T14:58:46.684Z,15.99
2022-11-01T15:01:18.096Z,15.97
2022-11-01T15:03:54.909Z,15.94
2022-11-01T15:06:24.956Z,15.89
2022-11-01T15:08:53.223Z,15.87
2022-11-01T15:11:21.085Z,15.86
2022-11-01T15:13:49.727Z,15.84
2022-11-01T15:16:23.125Z,15.81
2022-11-01T15:18:55.921Z,15.81
2022-11-01T15:21:30.680Z,15.73
2022-11-01T15:24:02.556Z,15.78
2022-11-01T15:26:33.943Z,15.76
2022-11-01T15:29:05.143Z,15.76
2022-11-01T15:31:50.390Z,15.75
2022-11-01T15:34:23.949Z,15.68
2022-11-01T15:36:52.425Z,15.71
2022-11-01T15:39:23.268Z,15.68
2022-11-01T15:41:53.908Z,15.63
2022-11-01T15:44:23.783Z,15.61
2022-11-01T15:46:56.402Z,15.65
2022-11-01T15:49:29.283Z,15.67
2022-11-01T15:52:01.623Z,15.59
2022-11-01T15:54:40.962Z,15.56
2022-11-01T15:57:13.596Z,15.56
2022-11-01T15:59:51.208Z,15.55
2022-11-01T16:02:28.577Z,15.46
2022-11-01T16:04:57.713Z,15.45
2022-11-01T16:07:27.504Z,15.45
2022-11-01T16:09:58.582Z,15.42
2022-11-01T16:12:30.788Z,15.34
2022-11-01T16:15:01.484Z,15.31
2022-11-01T16:17:34.992Z,15.32
2022-11-01T16:20:04.974Z,15.27
2022-11-01T16:22:47.534Z,15.22
2022-11-01T16:25:20.413Z,15.22
2022-11-01T16:28:03.454Z,15.19
2022-11-01T16:30:45.268Z,15.14
2022-11-01T16:33:20.828Z,15.12
2022-11-01T16:35:50.590Z,15.13
2022-11-01T16:38:26.230Z,15.10
2022-11-01T16:40:56.022Z,15.11
2022-11-01T16:43:24.442Z,15.11
2022-11-01T16:45:52.803Z,15.12
2022-11-01T16:48:25.283Z,15.20
2022-11-01T16:50:54.289Z,15.15
2022-11-01T16:53:22.353Z,15.11
2022-11-01T16:55:50.409Z,15.06
2022-11-01T16:58:20.866Z,15.04
2022-11-01T17:00:56.264Z,15.05
2022-11-01T17:03:26.865Z,15.08
2022-11-01T17:05:56.313Z,15.04
2022-11-01T17:08:29.352Z,15.07
2022-11-01T17:10:57.569Z,15.03
2022-11-01T17:13:25.600Z,14.98
2022-11-01T17:15:53.770Z,14.98
2022-11-01T17:18:29.081Z,14.91
2022-11-01T17:20:59.256Z,14.94
2022-11-01T17:23:28.682Z,14.93
2022-11-01T17:25:57.347Z,14.94
2022-11-01T17:28:26.089Z,14.89
2022-11-01T17:30:54.610Z,14.87
2022-11-01T17:33:22.594Z,14.87
2022-11-01T17:35:53.218Z,14.84
2022-11-01T17:38:30.086Z,14.78
2022-11-01T17:40:59.190Z,14.76
2022-11-01T17:43:27.100Z,14.75
2022-11-01T17:45:55.133Z,14.74
2022-11-01T17:48:23.022Z,14.71
2022-11-01T17:50:52.167Z,14.72
2022-11-01T17:53:20.052Z,14.68
2022-11-01T17:55:48.133Z,14.68
2022-11-01T17:58:15.938Z,14.66
2022-11-01T18:00:44.145Z,14.64
2022-11-01T18:03:14.767Z,14.63
2022-11-01T18:05:42.870Z,14.60
2022-11-01T18:08:17.956Z,14.59
2022-11-01T18:10:56.486Z,14.53
2022-11-01T18:13:36.375Z,14.44
2022-11-01T18:16:09.812Z,14.30
2022-11-01T18:19:01.686Z,14.21
2022-11-01T18:21:33.398Z,14.00
2022-11-01T18:24:08.005Z,13.98
2022-11-01T18:26:38.412Z,13.90
2022-11-01T18:29:17.124Z,13.79
2022-11-01T18:31:48.088Z,13.70
2022-11-01T18:34:31.929Z,13.62
2022-11-01T18:37:04.182Z,13.60
2022-11-01T18:39:41.092Z,13.56
2022-11-01T18:42:11.131Z,13.49
2022-11-01T18:44:39.571Z,13.43
2022-11-01T18:47:13.473Z,13.41
2022-11-01T18:49:41.210Z,13.42
2022-11-01T18:52:10.794Z,13.43
2022-11-01T18:54:47.672Z,13.49
2022-11-01T18:57:18.284Z,13.51
2022-11-01T18:59:49.353Z,13.46
2022-11-01T19:02:21.497Z,13.47
2022-11-01T19:04:52.236Z,13.44
2022-11-01T19:07:22.722Z,13.41
2022-11-01T19:09:54.745Z,13.40
2022-11-01T19:12:28.203Z,13.35
2022-11-01T19:14:59.610Z,13.28
2022-11-01T19:17:29.137Z,13.25
2022-11-01T19:19:59.663Z,13.24
2022-11-01T19:22:38.084Z,13.26
2022-11-01T19:25:19.657Z,13.28
2022-11-01T19:27:48.709Z,13.26
2022-11-01T19:30:24.290Z,13.25
2022-11-01T19:32:54.827Z,13.20
2022-11-01T19:35:23.647Z,13.17
2022-11-01T19:37:55.742Z,13.10
2022-11-01T19:40:28.793Z,13.08
2022-11-01T19:42:58.553Z,13.07
2022-11-01T19:45:31.685Z,13.02
2022-11-01T19:48:00.591Z,12.81
2022-11-01T19:50:38.202Z,13.02
2022-11-01T19:53:17.346Z,12.98
2022-11-01T19:55:52.592Z,12.93
2022-11-01T19:58:29.973Z,12.81
2022-11-01T20:01:21.138Z,12.69
2022-11-01T20:03:52.131Z,12.61
2022-11-01T20:06:23.673Z,12.52
2022-11-01T20:08:54.543Z,12.31
2022-11-01T20:11:23.686Z,12.36
2022-11-01T20:13:51.455Z,12.36
2022-11-01T20:16:19.321Z,12.35
2022-11-01T20:18:48.119Z,12.38
2022-11-01T20:21:15.962Z,12.35
2022-11-01T20:23:44.560Z,12.26
2022-11-01T20:26:13.234Z,12.24
2022-11-01T20:28:42.880Z,12.30
2022-11-01T20:31:10.786Z,12.43
2022-11-01T20:33:38.977Z,12.44
2022-11-01T20:36:11.244Z,12.38
2022-11-01T20:38:39.713Z,12.27
2022-11-01T20:41:07.635Z,12.17
2022-11-01T20:43:35.411Z,12.04
2022-11-01T20:46:04.605Z,12.01
2022-11-01T20:48:32.383Z,11.95
2022-11-01T20:51:00.253Z,12.03
2022-11-01T20:53:29.880Z,12.00
2022-11-01T20:55:57.858Z,12.05
2022-11-01T20:58:26.062Z,11.99
2022-11-01T21:00:53.907Z,11.95
2022-11-01T21:03:24.407Z,11.91
2022-11-01T21:05:52.806Z,11.84
2022-11-01T21:08:23.862Z,11.88
2022-11-01T21:10:57.452Z,11.95
2022-11-01T21:13:28.246Z,11.86
2022-11-01T21:15:57.700Z,11.83
2022-11-01T21:18:44.090Z,11.79
2022-11-01T21:21:34.691Z,11.72
2022-11-01T21:24:30.152Z,11.59
2022-11-01T21:27:26.108Z,11.52
2022-11-01T21:29:59.618Z,11.43
2022-11-01T21:32:30.653Z,11.35
2022-11-01T21:34:59.835Z,11.34
2022-11-01T21:37:29.795Z,11.30
2022-11-01T21:40:05.753Z,11.31
2022-11-01T21:42:36.927Z,11.27
2022-11-01T21:45:29.556Z,11.17
2022-11-01T21:48:01.084Z,11.15
2022-11-01T21:50:30.471Z,11.25
2022-11-01T21:52:58.282Z,11.26
2022-11-01T21:55:26.044Z,11.22
2022-11-01T21:57:53.855Z,11.17
2022-11-01T22:00:21.638Z,11.17
2022-11-01T22:02:49.439Z,11.15
2022-11-01T22:05:17.190Z,11.19
2022-11-01T22:07:46.299Z,11.20
2022-11-01T22:10:14.031Z,11.14
2022-11-01T22:12:41.798Z,11.21
2022-11-01T22:15:10.362Z,11.34
2022-11-01T22:17:38.130Z,11.24
2022-11-01T22:20:06.743Z,11.13
2022-11-01T22:22:34.527Z,11.06
2022-11-01T22:25:03.695Z,11.08
2022-11-01T22:27:31.506Z,11.07
2022-11-01T22:29:59.279Z,11.05
2022-11-01T22:32:27.074Z,11.05
2022-11-01T22:34:54.890Z,12.20
2022-11-01T22:37:22.678Z,12.48
2022-11-01T22:39:53.083Z,12.36
2022-11-01T22:42:23.165Z,12.49
2022-11-01T22:44:51.570Z,12.45
2022-11-01T22:47:25.794Z,12.92
2022-11-01T22:49:55.699Z,12.68
2022-11-01T22:52:32.138Z,12.53
2022-11-01T22:55:03.864Z,12.89
2022-11-01T22:57:37.291Z,12.86
2022-11-01T23:00:26.483Z,12.58
2022-11-01T23:02:59.692Z,12.41
2022-11-01T23:05:28.222Z,12.45
2022-11-01T23:07:57.531Z,12.23
2022-11-01T23:10:28.286Z,12.21
2022-11-01T23:13:19.677Z,12.16
2022-11-01T23:15:47.633Z,12.05
2022-11-01T23:18:22.810Z,12.13
2022-11-01T23:20:55.767Z,12.13
2022-11-01T23:23:24.041Z,12.23
2022-11-01T23:25:52.945Z,12.12
2022-11-01T23:28:24.293Z,12.25
2022-11-01T23:30:53.714Z,12.13
2022-11-01T23:33:23.083Z,12.33
2022-11-01T23:35:53.456Z,12.56
2022-11-01T23:38:24.087Z,12.58
2022-11-01T23:40:54.405Z,12.58
2022-11-01T23:43:28.787Z,12.50
2022-11-01T23:45:56.748Z,12.47
2022-11-01T23:48:25.282Z,12.42
2022-11-01T23:50:54.192Z,12.26
2022-11-01T23:53:26.297Z,12.26
2022-11-01T23:55:55.451Z,12.36
